Time;durP1;ratioP1;P1;durP2;ratioP2;P2;SDS_P1;SDS_P2;PMS_P1;PMS_P2;Temp;Humidity;BMP_temperature;BMP_pressure;BME280_temperature;BME280_humidity;BME280_pressure;Samples;Min_cycle;Max_cycle;Signal;HPM_P1;HPM_P2
2021/06/05 00:01:22;;;;;;;15.77;8.35;;;;;;;;;;5052547;28;20017;-68
2021/06/05 00:03:48;;;;;;;11.10;8.57;;;;;;;;;;5052474;28;20026;-66
2021/06/05 00:06:14;;;;;;;16.08;9.02;;;;;;;;;;5084573;22;20043;-65
2021/06/05 00:08:40;;;;;;;13.57;8.13;;;;;;;;;;5063192;28;20127;-65
2021/06/05 00:11:06;;;;;;;18.63;9.50;;;;;;;;;;5072370;28;20481;-64
2021/06/05 00:13:36;;;;;;;13.23;8.90;;;;;;;;;;5070395;28;20021;-65
2021/06/05 00:16:02;;;;;;;15.15;9.48;;;;;;;;;;5072194;28;20060;-64
2021/06/05 00:18:29;;;;;;;14.80;9.48;;;;;;;;;;5071868;28;20037;-64
2021/06/05 00:20:54;;;;;;;15.25;9.93;;;;;;;;;;5072235;28;20035;-65
2021/06/05 00:23:20;;;;;;;15.25;10.02;;;;;;;;;;5071586;28;20024;-64
2021/06/05 00:25:47;;;;;;;17.85;10.73;;;;;;;;;;5072073;28;20471;-65
2021/06/05 00:28:12;;;;;;;17.02;9.07;;;;;;;;;;5071513;28;20103;-65
2021/06/05 00:30:37;;;;;;;18.45;9.93;;;;;;;;;;5070622;28;20426;-65
2021/06/05 00:33:03;;;;;;;23.17;9.77;;;;;;;;;;5053922;28;20020;-64
2021/06/05 00:35:29;;;;;;;21.15;11.43;;;;;;;;;;5071992;28;20041;-65
2021/06/05 00:37:54;;;;;;;25.60;10.45;;;;;;;;;;5071115;28;20021;-65
2021/06/05 00:40:22;;;;;;;17.48;10.88;;;;;;;;;;5071488;28;20394;-64
2021/06/05 00:42:48;;;;;;;14.55;10.15;;;;;;;;;;5071939;28;20175;-64
2021/06/05 00:45:14;;;;;;;23.00;10.23;;;;;;;;;;5070567;28;20099;-64
2021/06/05 00:47:39;;;;;;;15.00;9.75;;;;;;;;;;5071815;28;20162;-65
2021/06/05 00:50:06;;;;;;;15.57;10.25;;;;;;;;;;5071420;28;20066;-64
2021/06/05 00:52:32;;;;;;;18.33;10.13;;;;;;;;;;5072005;28;20175;-65
2021/06/05 00:54:57;;;;;;;16.33;11.27;;;;;;;;;;5071453;28;20107;-65
2021/06/05 00:57:23;;;;;;;19.88;9.95;;;;;;;;;;5071074;28;20052;-65
2021/06/05 00:59:48;;;;;;;14.15;9.73;;;;;;;;;;5071252;28;20311;-65
2021/06/05 01:02:13;;;;;;;14.32;10.45;;;;;;;;;;5057448;28;20021;-65
2021/06/05 01:04:39;;;;;;;23.25;10.63;;;;;;;;;;5064328;28;20037;-65
2021/06/05 01:07:20;;;;;;;14.88;10.63;;;;;;;;;;5071171;28;20036;-65
2021/06/05 01:10:00;;;;;;;18.02;9.63;;;;;;;;;;5071313;28;20048;-65
2021/06/05 01:12:39;;;;;;;14.48;9.98;;;;;;;;;;5072002;28;20013;-65
2021/06/05 01:15:12;;;;;;;19.10;11.30;;;;;;;;;;5071677;28;20028;-65
2021/06/05 01:17:39;;;;;;;15.48;10.65;;;;;;;;;;5069662;28;20038;-65
2021/06/05 01:20:04;;;;;;;16.10;11.20;;;;;;;;;;5071606;28;20024;-65
2021/06/05 01:22:51;;;;;;;17.25;11.50;;;;;;;;;;5070592;28;20081;-65
2021/06/05 01:25:22;;;;;;;23.00;12.10;;;;;;;;;;5071556;28;20013;-65
2021/06/05 01:27:51;;;;;;;21.40;11.75;;;;;;;;;;5070945;28;20021;-65
2021/06/05 01:30:22;;;;;;;21.80;11.25;;;;;;;;;;5071590;28;20021;-65
2021/06/05 01:32:47;;;;;;;17.98;11.05;;;;;;;;;;5071155;28;20021;-65
2021/06/05 01:35:14;;;;;;;23.27;11.88;;;;;;;;;;5070915;28;20028;-65
2021/06/05 01:37:41;;;;;;;22.52;12.48;;;;;;;;;;5071088;28;20101;-65
2021/06/05 01:40:07;;;;;;;20.15;12.20;;;;;;;;;;5071761;28;20494;-64
2021/06/05 01:42:34;;;;;;;19.52;12.80;;;;;;;;;;5053809;28;20024;-66
2021/06/05 01:45:00;;;;;;;19.17;12.15;;;;;;;;;;5071112;28;20024;-65
2021/06/05 01:47:25;;;;;;;25.92;12.63;;;;;;;;;;5070454;28;20024;-64
2021/06/05 01:49:51;;;;;;;20.80;12.93;;;;;;;;;;5071115;28;20017;-65
2021/06/05 01:52:21;;;;;;;20.23;12.82;;;;;;;;;;5070202;28;20020;-64
2021/06/05 01:55:01;;;;;;;23.20;13.05;;;;;;;;;;5071403;28;20047;-64
2021/06/05 01:57:28;;;;;;;25.50;12.88;;;;;;;;;;5070666;28;20078;-65
2021/06/05 01:59:53;;;;;;;29.58;13.45;;;;;;;;;;5070362;28;20108;-64
2021/06/05 02:02:19;;;;;;;24.48;13.02;;;;;;;;;;5070168;28;20457;-64
2021/06/05 02:04:45;;;;;;;31.67;14.43;;;;;;;;;;5070620;28;20024;-65
2021/06/05 02:07:11;;;;;;;32.17;17.10;;;;;;;;;;5068770;28;20016;-64
2021/06/05 02:09:36;;;;;;;39.47;18.20;;;;;;;;;;5070302;28;20726;-64
2021/06/05 02:12:04;;;;;;;35.17;18.35;;;;;;;;;;5070634;28;20028;-65
2021/06/05 02:14:32;;;;;;;44.42;20.42;;;;;;;;;;5070135;28;20021;-64
2021/06/05 02:16:59;;;;;;;38.90;19.33;;;;;;;;;;5070731;28;20074;-65
2021/06/05 02:19:26;;;;;;;44.50;20.80;;;;;;;;;;5070405;28;20111;-65
2021/06/05 02:21:52;;;;;;;38.95;20.63;;;;;;;;;;5070548;28;20060;-64
2021/06/05 02:24:20;;;;;;;45.22;20.55;;;;;;;;;;5065028;28;20110;-65
2021/06/05 02:26:46;;;;;;;50.70;21.27;;;;;;;;;;5049794;28;20025;-65
2021/06/05 02:29:12;;;;;;;48.65;22.85;;;;;;;;;;5064046;28;20028;-65
2021/06/05 02:31:38;;;;;;;49.97;22.00;;;;;;;;;;5070634;28;20013;-64
2021/06/05 02:34:05;;;;;;;52.28;22.02;;;;;;;;;;5069934;28;20475;-64
2021/06/05 02:36:30;;;;;;;57.13;23.73;;;;;;;;;;5069691;28;20532;-65
2021/06/05 02:38:55;;;;;;;51.20;22.85;;;;;;;;;;5069940;28;20032;-65
2021/06/05 02:41:21;;;;;;;47.92;22.38;;;;;;;;;;5069683;28;20107;-65
2021/06/05 02:43:53;;;;;;;47.20;21.73;;;;;;;;;;5071304;28;20029;-65
2021/06/05 02:46:21;;;;;;;51.40;22.17;;;;;;;;;;5073686;28;20120;-65
2021/06/05 02:48:49;;;;;;;53.00;22.95;;;;;;;;;;5074130;28;20048;-65
2021/06/05 02:51:15;;;;;;;67.18;26.15;;;;;;;;;;5074187;28;20398;-65
2021/06/05 02:53:40;;;;;;;62.97;25.30;;;;;;;;;;5074133;28;20020;-64
2021/06/05 02:56:06;;;;;;;58.58;25.02;;;;;;;;;;5074222;28;20035;-65
2021/06/05 02:58:31;;;;;;;53.13;23.42;;;;;;;;;;5072059;28;20024;-64
2021/06/05 03:00:57;;;;;;;53.28;24.33;;;;;;;;;;5073823;28;20536;-64
2021/06/05 03:03:22;;;;;;;53.20;25.85;;;;;;;;;;5074121;28;20055;-65
2021/06/05 03:05:49;;;;;;;63.45;27.08;;;;;;;;;;5073402;28;20036;-65
2021/06/05 03:08:15;;;;;;;62.97;27.38;;;;;;;;;;5073742;28;20020;-65
2021/06/05 03:10:41;;;;;;;68.15;28.13;;;;;;;;;;5073583;28;20066;-65
2021/06/05 03:13:08;;;;;;;67.85;28.75;;;;;;;;;;5073637;28;20021;-65
2021/06/05 03:15:34;;;;;;;72.07;29.15;;;;;;;;;;5072033;28;20032;-65
2021/06/05 03:17:59;;;;;;;70.13;29.45;;;;;;;;;;5073414;28;20513;-65
2021/06/05 03:20:29;;;;;;;79.60;32.90;;;;;;;;;;5073438;28;20386;-65
2021/06/05 03:22:56;;;;;;;75.57;32.35;;;;;;;;;;5073387;28;20031;-64
2021/06/05 03:25:22;;;;;;;75.32;32.60;;;;;;;;;;5073413;28;20390;-65
2021/06/05 03:27:47;;;;;;;87.70;35.87;;;;;;;;;;5073247;28;20017;-64
2021/06/05 03:30:13;;;;;;;82.97;36.10;;;;;;;;;;5073293;28;20294;-65
2021/06/05 03:32:38;;;;;;;88.43;35.42;;;;;;;;;;5071886;28;20056;-65
2021/06/05 03:35:04;;;;;;;89.85;36.22;;;;;;;;;;5072416;28;20032;-65
2021/06/05 03:37:29;;;;;;;86.07;36.45;;;;;;;;;;5073053;28;20017;-64
2021/06/05 03:39:54;;;;;;;94.10;37.85;;;;;;;;;;5055375;28;20123;-65
2021/06/05 03:42:19;;;;;;;104.53;40.93;;;;;;;;;;5073597;28;20016;-65
2021/06/05 03:44:44;;;;;;;104.23;43.03;;;;;;;;;;5073148;28;20336;-64
2021/06/05 03:47:09;;;;;;;113.88;43.67;;;;;;;;;;5072589;28;20318;-65
2021/06/05 03:49:35;;;;;;;95.87;41.83;;;;;;;;;;5071285;28;20370;-65
2021/06/05 03:52:00;;;;;;;102.55;43.38;;;;;;;;;;5073133;28;20259;-65
2021/06/05 03:54:25;;;;;;;101.07;43.35;;;;;;;;;;5072242;28;20479;-65
2021/06/05 03:56:50;;;;;;;105.80;43.07;;;;;;;;;;5072601;28;20578;-64
2021/06/05 03:59:15;;;;;;;118.00;46.90;;;;;;;;;;5072715;28;20267;-64
2021/06/05 04:01:41;;;;;;;135.23;51.10;;;;;;;;;;5073009;28;20028;-64
2021/06/05 04:04:06;;;;;;;133.13;51.00;;;;;;;;;;5072658;28;20266;-64
2021/06/05 04:06:32;;;;;;;132.35;49.28;;;;;;;;;;5070386;28;20032;-65
2021/06/05 04:08:58;;;;;;;133.52;52.30;;;;;;;;;;5072655;28;20470;-64
2021/06/05 04:11:24;;;;;;;139.23;50.92;;;;;;;;;;5072687;28;20458;-65
2021/06/05 04:13:50;;;;;;;144.05;51.80;;;;;;;;;;5071603;28;20012;-65
2021/06/05 04:16:15;;;;;;;150.35;50.08;;;;;;;;;;5072394;28;20440;-66
2021/06/05 04:18:41;;;;;;;131.70;49.30;;;;;;;;;;5072269;28;20025;-65
2021/06/05 04:21:08;;;;;;;135.80;50.17;;;;;;;;;;5072332;28;20432;-65
2021/06/05 04:23:33;;;;;;;129.55;48.28;;;;;;;;;;5064951;28;20534;-66
2021/06/05 04:25:59;;;;;;;122.90;48.08;;;;;;;;;;5052498;28;20111;-65
2021/06/05 04:28:25;;;;;;;140.60;49.28;;;;;;;;;;5060686;28;20027;-65
2021/06/05 04:30:51;;;;;;;118.80;47.35;;;;;;;;;;5071859;28;20024;-65
2021/06/05 04:33:17;;;;;;;113.75;45.40;;;;;;;;;;5053603;28;20013;-65
2021/06/05 04:35:43;;;;;;;107.78;45.20;;;;;;;;;;5072387;28;20028;-65
2021/06/05 04:38:09;;;;;;;100.85;43.03;;;;;;;;;;5071724;28;20390;-64
2021/06/05 04:40:35;;;;;;;93.75;41.47;;;;;;;;;;5068928;28;20033;-64
2021/06/05 04:43:01;;;;;;;102.13;43.67;;;;;;;;;;5071994;28;20059;-65
2021/06/05 04:45:26;;;;;;;100.22;42.35;;;;;;;;;;5071809;28;20878;-64
2021/06/05 04:47:52;;;;;;;94.20;40.58;;;;;;;;;;5071569;28;20056;-65
2021/06/05 04:50:19;;;;;;;103.93;41.65;;;;;;;;;;5071919;28;20013;-65
2021/06/05 04:52:44;;;;;;;97.40;40.88;;;;;;;;;;5071626;28;20032;-65
2021/06/05 04:55:10;;;;;;;94.22;40.08;;;;;;;;;;5071845;28;20012;-65
2021/06/05 04:57:35;;;;;;;85.40;38.47;;;;;;;;;;5071083;28;20020;-64
2021/06/05 05:00:00;;;;;;;88.68;39.25;;;;;;;;;;5072140;28;20108;-65
2021/06/05 05:02:26;;;;;;;89.22;37.88;;;;;;;;;;5071700;28;20107;-65
2021/06/05 05:04:51;;;;;;;92.35;38.80;;;;;;;;;;5071386;28;20063;-64
2021/06/05 05:07:17;;;;;;;91.82;37.35;;;;;;;;;;5070220;28;20029;-66
2021/06/05 05:09:42;;;;;;;97.25;38.53;;;;;;;;;;5071746;28;20013;-65
2021/06/05 05:12:07;;;;;;;92.53;39.43;;;;;;;;;;5071468;28;20190;-64
2021/06/05 05:14:33;;;;;;;98.57;39.97;;;;;;;;;;5069585;28;20250;-65
2021/06/05 05:16:59;;;;;;;92.22;39.28;;;;;;;;;;5070558;28;20077;-65
2021/06/05 05:19:24;;;;;;;93.75;37.47;;;;;;;;;;5071407;28;20028;-65
2021/06/05 05:21:49;;;;;;;91.25;38.35;;;;;;;;;;5071295;28;20052;-64
2021/06/05 05:24:14;;;;;;;88.37;37.70;;;;;;;;;;5052865;28;20499;-66
2021/06/05 05:26:40;;;;;;;99.60;40.33;;;;;;;;;;5052716;28;20287;-65
2021/06/05 05:29:05;;;;;;;88.23;37.23;;;;;;;;;;5071112;28;20259;-65
2021/06/05 05:31:30;;;;;;;89.32;36.88;;;;;;;;;;5069315;28;20965;-65
2021/06/05 05:33:56;;;;;;;104.63;39.97;;;;;;;;;;5070109;28;20017;-66
2021/06/05 05:36:24;;;;;;;85.10;36.20;;;;;;;;;;5070490;28;20262;-64
2021/06/05 05:38:50;;;;;;;94.35;40.33;;;;;;;;;;5070743;28;20682;-65
2021/06/05 05:41:16;;;;;;;87.90;36.63;;;;;;;;;;5070918;28;20067;-65
2021/06/05 05:43:42;;;;;;;89.18;35.33;;;;;;;;;;5069995;28;20085;-65
2021/06/05 05:46:07;;;;;;;78.75;33.78;;;;;;;;;;5070733;28;20099;-65
2021/06/05 05:48:33;;;;;;;75.30;33.58;;;;;;;;;;5070002;28;20032;-64
2021/06/05 05:50:58;;;;;;;78.07;34.75;;;;;;;;;;5070895;28;20324;-65
2021/06/05 05:53:24;;;;;;;101.97;36.63;;;;;;;;;;5068011;28;20048;-66
2021/06/05 05:55:49;;;;;;;91.38;35.63;;;;;;;;;;5070483;28;20261;-65
2021/06/05 05:58:17;;;;;;;89.68;36.40;;;;;;;;;;5069285;28;20070;-65
2021/06/05 06:00:43;;;;;;;86.03;35.80;;;;;;;;;;5070660;28;20055;-65
2021/06/05 06:03:09;;;;;;;84.93;34.22;;;;;;;;;;5070237;28;20036;-65
2021/06/05 06:05:34;;;;;;;81.93;34.30;;;;;;;;;;5070845;28;20115;-64
2021/06/05 06:08:00;;;;;;;87.22;37.13;;;;;;;;;;5070093;28;20020;-65
2021/06/05 06:10:25;;;;;;;90.15;34.20;;;;;;;;;;5070566;28;20470;-65
2021/06/05 06:12:51;;;;;;;81.28;33.38;;;;;;;;;;5070328;28;20625;-66
2021/06/05 06:15:18;;;;;;;80.38;34.53;;;;;;;;;;5064539;28;20017;-66
2021/06/05 06:17:44;;;;;;;92.18;35.60;;;;;;;;;;5054960;28;20065;-64
2021/06/05 06:20:11;;;;;;;89.53;36.47;;;;;;;;;;5070504;28;20421;-65
2021/06/05 06:22:37;;;;;;;89.53;35.47;;;;;;;;;;5070240;28;20143;-65
2021/06/05 06:25:04;;;;;;;73.95;32.95;;;;;;;;;;5070460;28;20048;-64
2021/06/05 06:27:31;;;;;;;83.95;36.63;;;;;;;;;;5070095;28;20020;-66
2021/06/05 06:29:56;;;;;;;86.07;37.97;;;;;;;;;;5070456;28;20044;-64
2021/06/05 06:32:21;;;;;;;81.50;37.57;;;;;;;;;;5061419;28;20072;-65
2021/06/05 06:34:47;;;;;;;85.57;36.07;;;;;;;;;;5070052;28;20342;-64
2021/06/05 06:37:12;;;;;;;81.30;36.15;;;;;;;;;;5069611;28;20274;-64
2021/06/05 06:39:37;;;;;;;79.50;35.90;;;;;;;;;;5069919;28;20042;-65
2021/06/05 06:42:02;;;;;;;86.70;37.10;;;;;;;;;;5070272;28;20028;-65
2021/06/05 06:44:28;;;;;;;81.18;35.85;;;;;;;;;;5069824;28;20273;-64
2021/06/05 06:46:53;;;;;;;96.38;38.75;;;;;;;;;;5069401;28;20025;-65
2021/06/05 06:49:20;;;;;;;76.65;35.80;;;;;;;;;;5061371;28;20017;-64
2021/06/05 06:51:45;;;;;;;84.47;35.95;;;;;;;;;;5058228;28;20056;-64
2021/06/05 06:54:11;;;;;;;74.30;35.33;;;;;;;;;;5067886;28;20044;-65
2021/06/05 06:56:37;;;;;;;89.03;40.10;;;;;;;;;;5069564;28;20070;-65
2021/06/05 06:59:03;;;;;;;77.07;34.45;;;;;;;;;;5069277;28;20032;-64
2021/06/05 07:01:28;;;;;;;76.93;35.08;;;;;;;;;;5069973;28;20067;-65
2021/06/05 07:03:53;;;;;;;75.90;32.70;;;;;;;;;;5070119;28;20131;-63
2021/06/05 07:06:19;;;;;;;73.68;33.58;;;;;;;;;;5069036;28;20282;-65
2021/06/05 07:08:45;;;;;;;73.57;31.50;;;;;;;;;;5064573;28;20078;-66
2021/06/05 07:11:12;;;;;;;74.30;33.05;;;;;;;;;;5069768;28;20027;-65
2021/06/05 07:13:37;;;;;;;70.88;32.05;;;;;;;;;;5069624;28;20028;-64
2021/06/05 07:16:03;;;;;;;68.03;28.88;;;;;;;;;;5069545;28;20025;-65
2021/06/05 07:18:29;;;;;;;67.90;29.35;;;;;;;;;;5068925;28;20545;-65
2021/06/05 07:20:55;;;;;;;66.68;30.35;;;;;;;;;;5069999;28;20127;-65
2021/06/05 07:23:22;;;;;;;60.13;29.70;;;;;;;;;;5067760;28;20111;-65
2021/06/05 07:25:47;;;;;;;65.22;29.08;;;;;;;;;;5067991;28;20433;-63
2021/06/05 07:28:12;;;;;;;55.97;28.42;;;;;;;;;;5069259;28;20017;-64
2021/06/05 07:30:37;;;;;;;67.55;31.13;;;;;;;;;;5072042;28;20024;-64
2021/06/05 07:33:03;;;;;;;57.97;27.88;;;;;;;;;;5073275;28;20020;-65
2021/06/05 07:35:28;;;;;;;60.92;28.42;;;;;;;;;;5073177;28;20025;-64
2021/06/05 07:37:53;;;;;;;60.73;28.30;;;;;;;;;;5072333;28;20506;-66
2021/06/05 07:40:18;;;;;;;60.00;27.93;;;;;;;;;;5067765;28;20309;-63
2021/06/05 07:42:44;;;;;;;58.40;27.77;;;;;;;;;;5062316;28;20362;-65
2021/06/05 07:45:10;;;;;;;56.53;27.17;;;;;;;;;;5059791;28;20021;-65
2021/06/05 07:47:35;;;;;;;59.75;25.23;;;;;;;;;;5059725;28;20444;-65
2021/06/05 07:50:00;;;;;;;60.83;29.02;;;;;;;;;;5073412;28;20038;-66
2021/06/05 07:52:26;;;;;;;58.37;27.13;;;;;;;;;;5072569;28;20016;-65
2021/06/05 07:54:53;;;;;;;62.75;29.02;;;;;;;;;;5071843;28;20353;-64
2021/06/05 07:57:19;;;;;;;61.92;28.75;;;;;;;;;;5070607;28;20052;-67
2021/06/05 07:59:44;;;;;;;56.00;27.50;;;;;;;;;;5069911;28;20486;-65
2021/06/05 08:02:10;;;;;;;56.70;28.98;;;;;;;;;;5067674;28;20034;-65
2021/06/05 08:04:35;;;;;;;55.67;28.75;;;;;;;;;;5070998;28;20048;-65
2021/06/05 08:07:00;;;;;;;57.33;28.92;;;;;;;;;;5068653;28;20020;-65
2021/06/05 08:09:25;;;;;;;55.13;28.00;;;;;;;;;;5067935;28;20095;-63
2021/06/05 08:11:50;;;;;;;55.40;27.23;;;;;;;;;;5067923;28;20265;-65
2021/06/05 08:14:16;;;;;;;58.23;29.73;;;;;;;;;;5067209;28;20779;-64
2021/06/05 08:16:41;;;;;;;58.83;28.35;;;;;;;;;;5067796;28;20124;-65
2021/06/05 08:19:09;;;;;;;59.33;28.23;;;;;;;;;;5068369;28;20107;-64
2021/06/05 08:21:34;;;;;;;59.17;28.90;;;;;;;;;;5067160;28;20033;-64
2021/06/05 08:24:00;;;;;;;61.28;28.85;;;;;;;;;;5067530;28;20494;-63
2021/06/05 08:26:25;;;;;;;60.40;29.40;;;;;;;;;;5067370;28;20067;-65
2021/06/05 08:28:50;;;;;;;52.10;26.73;;;;;;;;;;5067115;28;20312;-64
2021/06/05 08:31:16;;;;;;;55.70;26.83;;;;;;;;;;5066953;28;20027;-65
2021/06/05 08:33:42;;;;;;;54.30;26.92;;;;;;;;;;5068213;28;20128;-65
2021/06/05 08:36:08;;;;;;;65.63;28.33;;;;;;;;;;5066242;28;20103;-65
2021/06/05 08:38:33;;;;;;;57.03;27.45;;;;;;;;;;5066784;28;20051;-64
2021/06/05 08:40:58;;;;;;;60.25;27.98;;;;;;;;;;5065880;28;20032;-64
2021/06/05 08:43:26;;;;;;;60.60;30.00;;;;;;;;;;5067643;28;20485;-64
2021/06/05 08:45:52;;;;;;;56.05;28.20;;;;;;;;;;5065929;28;20402;-64
2021/06/05 08:48:18;;;;;;;54.85;28.08;;;;;;;;;;5067014;28;20192;-64
2021/06/05 08:50:44;;;;;;;57.88;28.42;;;;;;;;;;5066240;28;20028;-65
2021/06/05 08:53:12;;;;;;;51.17;27.33;;;;;;;;;;5066391;28;20077;-64
2021/06/05 08:55:40;;;;;;;53.95;28.52;;;;;;;;;;5069746;28;20012;-65
2021/06/05 08:58:13;;;;;;;66.43;27.45;;;;;;;;;;5071464;28;20429;-64
2021/06/05 09:00:43;;;;;;;59.78;28.60;;;;;;;;;;5056201;28;20017;-65
2021/06/05 09:03:10;;;;;;;56.50;28.60;;;;;;;;;;5070948;28;20096;-65
2021/06/05 09:05:39;;;;;;;50.17;28.13;;;;;;;;;;5065690;28;20028;-64
2021/06/05 09:08:04;;;;;;;56.28;27.35;;;;;;;;;;5065835;28;20029;-65
2021/06/05 09:10:30;;;;;;;60.15;28.15;;;;;;;;;;5066582;28;20024;-65
2021/06/05 09:12:55;;;;;;;50.05;26.75;;;;;;;;;;5066748;28;20116;-64
2021/06/05 09:15:26;;;;;;;56.83;28.75;;;;;;;;;;5066050;28;20020;-64
2021/06/05 09:17:54;;;;;;;53.90;28.85;;;;;;;;;;5064975;28;20367;-64
2021/06/05 09:20:31;;;;;;;54.28;29.30;;;;;;;;;;5065052;28;20025;-64
2021/06/05 09:22:56;;;;;;;58.53;30.85;;;;;;;;;;5065830;28;20047;-64
2021/06/05 09:25:21;;;;;;;65.60;31.87;;;;;;;;;;5065802;28;20401;-65
2021/06/05 09:27:46;;;;;;;56.92;29.40;;;;;;;;;;5066192;28;20315;-64
2021/06/05 09:30:24;;;;;;;60.08;29.90;;;;;;;;;;5065465;28;20020;-64
2021/06/05 09:32:49;;;;;;;66.22;30.90;;;;;;;;;;5069336;28;20024;-65
2021/06/05 09:35:14;;;;;;;64.43;32.40;;;;;;;;;;5062297;28;20009;-64
2021/06/05 09:37:44;;;;;;;54.53;29.25;;;;;;;;;;5070029;28;20024;-65
2021/06/05 09:40:14;;;;;;;51.95;29.42;;;;;;;;;;5069013;28;20031;-64
2021/06/05 09:42:41;;;;;;;;;;;;;;;;;;5070926;28;20482;-65
2021/06/05 09:45:18;;;;;;;50.10;27.88;;;;;;;;;;5070862;28;19909;-64
2021/06/05 09:47:43;;;;;;;54.13;29.05;;;;;;;;;;5069908;28;20377;-64
2021/06/05 09:50:16;;;;;;;55.60;28.92;;;;;;;;;;5070824;28;20150;-65
2021/06/05 09:52:42;;;;;;;57.25;28.35;;;;;;;;;;5070521;28;20024;-65
2021/06/05 09:55:28;;;;;;;51.15;28.23;;;;;;;;;;5070646;28;20024;-64
2021/06/05 09:57:55;;;;;;;49.55;27.00;;;;;;;;;;5070149;28;20013;-64
2021/06/05 10:00:28;;;;;;;53.50;27.48;;;;;;;;;;5070811;28;20486;-65
2021/06/05 10:03:13;;;;;;;54.03;28.35;;;;;;;;;;5063427;28;20505;-64
2021/06/05 10:05:40;;;;;;;47.90;27.02;;;;;;;;;;5052537;28;20040;-65
2021/06/05 10:08:23;;;;;;;52.17;27.63;;;;;;;;;;5069996;28;20040;-64
2021/06/05 10:10:51;;;;;;;49.67;26.80;;;;;;;;;;5070409;28;20063;-64
2021/06/05 10:13:21;;;;;;;50.58;27.20;;;;;;;;;;5070574;28;20036;-64
2021/06/05 10:15:54;;;;;;;50.20;26.52;;;;;;;;;;5069819;28;20095;-65
2021/06/05 10:18:25;;;;;;;50.17;28.65;;;;;;;;;;5070081;28;20052;-64
2021/06/05 10:20:55;;;;;;;54.45;28.73;;;;;;;;;;5070126;28;20074;-64
2021/06/05 10:23:31;;;;;;;55.72;28.58;;;;;;;;;;5070439;28;20443;-64
2021/06/05 10:26:01;;;;;;;49.65;27.25;;;;;;;;;;5070087;28;20149;-64
2021/06/05 10:28:48;;;;;;;48.53;24.67;;;;;;;;;;5070288;28;20516;-64
2021/06/05 10:31:15;;;;;;;80.70;32.75;;;;;;;;;;5052255;28;20493;-65
2021/06/05 10:33:40;;;;;;;59.40;31.05;;;;;;;;;;5069492;28;20421;-63
2021/06/05 10:36:31;;;;;;;56.50;28.70;;;;;;;;;;5070688;28;20013;-65
2021/06/05 10:39:29;;;;;;;54.55;29.88;;;;;;;;;;5066200;28;20262;-63
2021/06/05 10:41:56;;;;;;;54.72;28.83;;;;;;;;;;5015732;28;20037;-65
2021/06/05 10:44:23;;;;;;;53.75;28.67;;;;;;;;;;5060369;28;20028;-64
2021/06/05 10:46:51;;;;;;;60.88;30.52;;;;;;;;;;5069750;28;20025;-64
2021/06/05 10:49:26;;;;;;;50.67;29.15;;;;;;;;;;5068847;28;20029;-65
2021/06/05 10:52:04;;;;;;;57.65;31.05;;;;;;;;;;5063561;28;20028;-64
2021/06/05 10:54:30;;;;;;;58.53;31.23;;;;;;;;;;5069898;28;20043;-65
2021/06/05 10:56:55;;;;;;;58.63;28.98;;;;;;;;;;5069795;28;20020;-64
2021/06/05 10:59:39;;;;;;;55.15;30.30;;;;;;;;;;5070184;28;20021;-64
2021/06/05 11:02:04;;;;;;;53.67;29.80;;;;;;;;;;5070131;28;20048;-65
2021/06/05 11:04:33;;;;;;;63.88;32.42;;;;;;;;;;5070113;28;20509;-64
2021/06/05 11:07:01;;;;;;;66.80;33.15;;;;;;;;;;5064750;28;20048;-64
2021/06/05 11:09:27;;;;;;;57.55;32.53;;;;;;;;;;5054053;28;20024;-65
2021/06/05 11:11:52;;;;;;;59.63;32.03;;;;;;;;;;5053801;28;20016;-64
2021/06/05 11:14:20;;;;;;;58.80;31.20;;;;;;;;;;5055643;28;20037;-64
2021/06/05 11:16:58;;;;;;;58.55;31.67;;;;;;;;;;5073516;28;20016;-63
2021/06/05 11:19:23;;;;;;;56.00;31.20;;;;;;;;;;5074117;28;20467;-65
2021/06/05 11:21:55;;;;;;;56.83;32.17;;;;;;;;;;5073781;28;20021;-63
2021/06/05 11:24:22;;;;;;;54.40;30.52;;;;;;;;;;5071949;28;20250;-64
2021/06/05 11:26:50;;;;;;;52.63;28.75;;;;;;;;;;5073050;28;20437;-64
2021/06/05 11:29:15;;;;;;;51.85;28.13;;;;;;;;;;5073610;28;20024;-64
2021/06/05 11:31:42;;;;;;;56.03;27.20;;;;;;;;;;5073097;28;20378;-65
2021/06/05 11:34:08;;;;;;;51.78;29.02;;;;;;;;;;5073575;28;20028;-63
2021/06/05 11:36:37;;;;;;;59.72;31.65;;;;;;;;;;5073104;28;20025;-64
2021/06/05 11:39:05;;;;;;;51.25;27.80;;;;;;;;;;5073020;28;20012;-64
2021/06/05 11:41:41;;;;;;;59.60;31.20;;;;;;;;;;5073081;28;20035;-64
2021/06/05 11:44:26;;;;;;;52.80;28.05;;;;;;;;;;5073363;28;20017;-64
2021/06/05 11:47:21;;;;;;;48.40;26.98;;;;;;;;;;5058219;28;20037;-64
2021/06/05 11:49:51;;;;;;;46.92;25.48;;;;;;;;;;5071717;28;20430;-64
2021/06/05 11:52:25;;;;;;;52.22;26.02;;;;;;;;;;5073175;28;20027;-65
2021/06/05 11:54:51;;;;;;;51.55;24.80;;;;;;;;;;5072514;28;20059;-65
2021/06/05 11:57:22;;;;;;;48.15;23.70;;;;;;;;;;5072007;28;20411;-65
2021/06/05 11:59:48;;;;;;;44.40;24.63;;;;;;;;;;5064502;28;20025;-65
2021/06/05 12:02:25;;;;;;;44.57;26.90;;;;;;;;;;5071135;28;20027;-65
2021/06/05 12:04:56;;;;;;;57.72;28.23;;;;;;;;;;5088612;23;20271;-65
2021/06/05 12:07:24;;;;;;;50.92;28.75;;;;;;;;;;5021506;28;20026;-66
2021/06/05 12:09:55;;;;;;;55.90;27.08;;;;;;;;;;5026558;28;20043;-66
2021/06/05 12:12:21;;;;;;;47.85;25.83;;;;;;;;;;5032616;28;20021;-66
2021/06/05 12:17:26;;;;;;;60.17;32.70;;;;;;;;;;5012078;28;20092;-66
2021/06/05 12:19:51;;;;;;;63.88;33.42;;;;;;;;;;5013077;28;20304;-66
2021/06/05 12:22:20;;;;;;;71.63;36.17;;;;;;;;;;5012496;28;20022;-66
2021/06/05 12:24:50;;;;;;;80.65;38.05;;;;;;;;;;5012628;28;20268;-66
2021/06/05 12:27:20;;;;;;;68.75;37.42;;;;;;;;;;5012098;28;20029;-66
2021/06/05 12:29:45;;;;;;;83.25;40.45;;;;;;;;;;5012243;28;20028;-66
2021/06/05 12:32:15;;;;;;;87.40;44.70;;;;;;;;;;5012359;28;20097;-66
2021/06/05 12:34:41;;;;;;;84.95;43.13;;;;;;;;;;5012400;28;20253;-66
2021/06/05 12:37:15;;;;;;;91.70;45.83;;;;;;;;;;5011628;28;20033;-66
2021/06/05 12:40:00;;;;;;;94.40;48.40;;;;;;;;;;5011911;28;20467;-67
2021/06/05 12:42:27;;;;;;;96.53;46.72;;;;;;;;;;5010310;28;20073;-67
2021/06/05 12:44:54;;;;;;;86.07;44.78;;;;;;;;;;5012668;28;20068;-67
2021/06/05 12:47:22;;;;;;;99.60;49.53;;;;;;;;;;5011884;28;20084;-67
2021/06/05 12:49:47;;;;;;;105.63;51.63;;;;;;;;;;5012443;28;20384;-67
2021/06/05 12:52:15;;;;;;;108.05;56.97;;;;;;;;;;5011437;28;20018;-67
2021/06/05 12:54:42;;;;;;;118.97;55.92;;;;;;;;;;5012278;28;20428;-67
2021/06/05 12:57:27;;;;;;;119.63;58.63;;;;;;;;;;5011828;28;20121;-65
2021/06/05 12:59:52;;;;;;;120.97;60.67;;;;;;;;;;5011911;28;20108;-66
2021/06/05 13:02:39;;;;;;;137.20;69.75;;;;;;;;;;5012104;28;20726;-66
2021/06/05 13:05:09;;;;;;;130.15;63.20;;;;;;;;;;5011841;28;20029;-66
2021/06/05 13:07:37;;;;;;;132.57;62.95;;;;;;;;;;5011062;28;20164;-66
2021/06/05 13:10:19;;;;;;;144.75;71.13;;;;;;;;;;5005347;28;20033;-66
2021/06/05 13:12:45;;;;;;;149.35;71.40;;;;;;;;;;5001211;28;20022;-66
2021/06/05 13:15:12;;;;;;;144.25;67.65;;;;;;;;;;5011026;28;20014;-66
2021/06/05 13:17:42;;;;;;;150.05;73.18;;;;;;;;;;5000460;28;20022;-66
2021/06/05 13:20:08;;;;;;;151.30;72.90;;;;;;;;;;5011928;28;20094;-66
2021/06/05 13:22:33;;;;;;;149.25;74.20;;;;;;;;;;5011597;28;20041;-66
2021/06/05 13:24:58;;;;;;;144.70;70.90;;;;;;;;;;5010826;28;20026;-66
2021/06/05 13:27:24;;;;;;;156.27;74.78;;;;;;;;;;5010337;28;20285;-66
2021/06/05 13:29:49;;;;;;;146.32;71.93;;;;;;;;;;5011627;28;20503;-66
2021/06/05 13:32:24;;;;;;;163.15;76.55;;;;;;;;;;5011345;28;20021;-66
2021/06/05 13:34:49;;;;;;;152.20;70.70;;;;;;;;;;5011468;28;20395;-66
2021/06/05 13:37:28;;;;;;;160.65;78.45;;;;;;;;;;5010664;28;20018;-66
2021/06/05 13:39:55;;;;;;;157.00;74.38;;;;;;;;;;5011176;28;20056;-66
2021/06/05 13:42:22;;;;;;;161.40;80.82;;;;;;;;;;5006659;28;20049;-65
2021/06/05 13:44:47;;;;;;;167.57;82.00;;;;;;;;;;4998143;28;20038;-66
2021/06/05 13:47:14;;;;;;;178.20;80.53;;;;;;;;;;5008203;28;20049;-66
2021/06/05 13:49:39;;;;;;;172.38;79.53;;;;;;;;;;5011430;28;20267;-66
2021/06/05 13:52:12;;;;;;;159.73;75.55;;;;;;;;;;5011102;28;20182;-66
2021/06/05 13:54:38;;;;;;;160.80;76.13;;;;;;;;;;5011208;28;20021;-66
2021/06/05 13:57:03;;;;;;;159.30;74.68;;;;;;;;;;5009515;28;20018;-66
2021/06/05 13:59:28;;;;;;;166.05;76.82;;;;;;;;;;5010576;28;20075;-66
2021/06/05 14:01:53;;;;;;;160.23;78.63;;;;;;;;;;5011104;28;20021;-66
2021/06/05 14:04:19;;;;;;;160.97;76.27;;;;;;;;;;5010794;28;20351;-66
2021/06/05 14:06:44;;;;;;;166.60;84.50;;;;;;;;;;5010485;28;20292;-66
2021/06/05 14:09:12;;;;;;;159.87;72.50;;;;;;;;;;5010430;28;20922;-66
2021/06/05 14:11:37;;;;;;;156.05;71.63;;;;;;;;;;5011079;28;20281;-66
2021/06/05 14:14:02;;;;;;;154.07;72.57;;;;;;;;;;5010184;28;20482;-66
2021/06/05 14:16:27;;;;;;;163.43;72.45;;;;;;;;;;4996977;28;20261;-66
2021/06/05 14:18:52;;;;;;;162.20;77.03;;;;;;;;;;5004140;28;20022;-66
2021/06/05 14:21:18;;;;;;;173.63;80.10;;;;;;;;;;5010108;28;20112;-66